createdAt,value
2023-01-26T00:05:09.873Z,96.42
2023-01-26T00:11:18.007Z,96.15
2023-01-26T00:17:26.952Z,96.32
2023-01-26T00:23:32.179Z,96.17
2023-01-26T00:29:34.061Z,95.03
2023-01-26T00:35:35.997Z,96.44
2023-01-26T00:41:56.047Z,95.48
2023-01-26T00:47:58.058Z,95.43
2023-01-26T00:53:59.956Z,96.17
2023-01-26T01:00:02.060Z,96.88
2023-01-26T01:06:04.272Z,96.84
2023-01-26T01:12:06.390Z,96.95
2023-01-26T01:18:08.288Z,97.40
2023-01-26T01:24:14.154Z,97.76
2023-01-26T01:30:16.121Z,97.94
2023-01-26T01:36:18.067Z,97.34
2023-01-26T01:42:20.420Z,97.21
2023-01-26T01:48:28.478Z,97.06
2023-01-26T01:55:02.068Z,95.67
2023-01-26T02:01:04.114Z,96.62
2023-01-26T02:07:06.212Z,96.26
2023-01-26T02:13:08.672Z,96.00
2023-01-26T02:19:26.375Z,96.20
2023-01-26T02:25:57.219Z,95.97
2023-01-26T02:31:59.152Z,94.92
2023-01-26T02:38:01.163Z,95.98
2023-01-26T02:44:07.281Z,95.45
2023-01-26T02:50:10.859Z,95.22
2023-01-26T02:56:12.986Z,94.88
2023-01-26T03:02:15.186Z,94.25
2023-01-26T03:08:17.413Z,95.32
2023-01-26T03:14:19.732Z,96.45
2023-01-26T03:20:39.898Z,95.89
2023-01-26T03:27:00.320Z,97.17
2023-01-26T03:33:02.197Z,96.59
2023-01-26T03:39:05.535Z,95.39
2023-01-26T03:45:26.896Z,95.50
2023-01-26T03:51:47.045Z,95.21
2023-01-26T03:57:49.332Z,94.69
2023-01-26T04:04:11.138Z,94.83
2023-01-26T04:10:13.212Z,95.45
2023-01-26T04:16:34.209Z,94.50
2023-01-26T04:22:45.150Z,94.84
2023-01-26T04:28:47.083Z,95.07
2023-01-26T04:34:48.986Z,95.15
2023-01-26T04:40:54.916Z,94.35
2023-01-26T04:46:56.790Z,95.02
2023-01-26T04:52:58.706Z,94.08
2023-01-26T04:59:04.425Z,95.79
2023-01-26T05:05:06.895Z,94.67
2023-01-26T05:11:09.002Z,94.91
2023-01-26T05:17:10.962Z,95.28
2023-01-26T05:23:13.064Z,95.37
2023-01-26T05:29:15.055Z,94.79
2023-01-26T05:35:17.208Z,94.81
2023-01-26T05:41:19.086Z,95.09
2023-01-26T05:47:21.091Z,94.59
2023-01-26T05:53:23.002Z,94.30
2023-01-26T05:59:24.873Z,94.53
2023-01-26T06:05:26.803Z,94.08
2023-01-26T06:11:28.782Z,93.48
2023-01-26T06:17:30.717Z,93.27
2023-01-26T06:23:32.634Z,92.58
2023-01-26T06:29:34.584Z,92.64
2023-01-26T06:35:36.538Z,92.48
2023-01-26T06:41:39.565Z,93.22
2023-01-26T06:47:50.020Z,93.14
2023-01-26T06:53:59.098Z,93.30
2023-01-26T07:00:01.016Z,94.41
2023-01-26T07:06:02.962Z,94.86
2023-01-26T07:12:04.953Z,95.26
2023-01-26T07:18:06.972Z,95.42
2023-01-26T07:24:10.089Z,95.48
2023-01-26T07:30:16.084Z,96.44
2023-01-26T07:36:17.967Z,96.88
2023-01-26T07:42:19.887Z,96.84
2023-01-26T07:48:24.365Z,97.56
2023-01-26T07:54:26.344Z,97.11
2023-01-26T08:00:28.234Z,97.17
2023-01-26T08:06:30.122Z,97.75
2023-01-26T08:12:38.064Z,97.35
2023-01-26T08:18:43.284Z,97.27
2023-01-26T08:24:45.183Z,97.43
2023-01-26T08:30:47.104Z,97.55
2023-01-26T08:36:49.491Z,96.95
2023-01-26T08:42:52.618Z,97.12
2023-01-26T08:48:54.518Z,96.43
2023-01-26T08:54:56.407Z,96.51
2023-01-26T09:00:58.453Z,96.40
2023-01-26T09:07:00.398Z,96.02
2023-01-26T09:13:02.470Z,95.36
2023-01-26T09:19:05.157Z,95.02
2023-01-26T09:25:07.684Z,95.14
2023-01-26T09:31:11.842Z,95.07
2023-01-26T09:37:14.894Z,94.29
2023-01-26T09:43:47.910Z,94.70
2023-01-26T09:50:25.660Z,92.67
2023-01-26T09:56:32.531Z,93.37
2023-01-26T10:03:11.081Z,93.70
2023-01-26T10:09:33.262Z,94.09
2023-01-26T10:15:41.079Z,93.49
2023-01-26T10:21:47.752Z,92.64
2023-01-26T10:27:49.717Z,92.89
2023-01-26T10:34:10.710Z,94.66
2023-01-26T10:40:13.397Z,94.71
2023-01-26T10:46:36.193Z,95.11
2023-01-26T10:52:38.136Z,97.10
2023-01-26T10:58:57.402Z,97.27
2023-01-26T11:05:09.762Z,97.01
2023-01-26T11:11:32.084Z,96.58
2023-01-26T11:17:45.725Z,95.52
2023-01-26T11:24:13.962Z,95.81
2023-01-26T11:31:02.197Z,95.78
2023-01-26T11:37:41.491Z,96.01
2023-01-26T11:44:08.044Z,95.76
2023-01-26T11:50:36.797Z,94.48
2023-01-26T11:56:52.458Z,94.67
2023-01-26T12:03:04.662Z,94.06
2023-01-26T12:09:22.860Z,93.14
2023-01-26T12:15:37.043Z,92.30
2023-01-26T12:21:44.067Z,91.39
2023-01-26T12:28:20.782Z,91.17
2023-01-26T12:34:33.640Z,92.73
2023-01-26T12:41:14.201Z,92.57
2023-01-26T12:47:36.184Z,92.66
2023-01-26T12:54:36.940Z,93.53
2023-01-26T13:00:39.873Z,93.29
2023-01-26T13:06:42.239Z,92.46
2023-01-26T13:12:53.489Z,93.99
2023-01-26T13:18:57.641Z,94.09
2023-01-26T13:25:16.422Z,93.98
2023-01-26T13:31:34.572Z,94.14
2023-01-26T13:38:29.901Z,94.50
2023-01-26T13:44:45.465Z,94.06
2023-01-26T13:50:51.733Z,93.80
2023-01-26T13:57:06.919Z,93.22
2023-01-26T14:03:22.868Z,94.47
2023-01-26T14:09:32.625Z,94.47
2023-01-26T14:15:35.205Z,94.10
2023-01-26T14:22:01.034Z,94.68
2023-01-26T14:28:03.436Z,94.99
2023-01-26T14:34:10.668Z,95.30
2023-01-26T14:40:19.796Z,95.87
2023-01-26T14:46:30.847Z,97.56
2023-01-26T14:52:40.320Z,98.00
2023-01-26T14:58:42.543Z,99.23
2023-01-26T15:04:58.906Z,99.45
2023-01-26T15:11:21.971Z,99.76
2023-01-26T15:17:38.445Z,99.66
2023-01-26T15:23:51.941Z,99.85
2023-01-26T15:29:59.878Z,99.45
2023-01-26T15:36:02.150Z,99.96
2023-01-26T15:42:15.318Z,100.00
2023-01-26T15:48:17.499Z,100.00
2023-01-26T15:54:19.409Z,100.00
2023-01-26T16:00:22.481Z,100.00
2023-01-26T16:06:31.367Z,100.00
2023-01-26T16:12:33.373Z,100.00
2023-01-26T16:18:35.329Z,100.00
2023-01-26T16:24:38.416Z,100.00
2023-01-26T16:30:42.020Z,100.00
2023-01-26T16:36:43.957Z,100.00
2023-01-26T16:42:50.927Z,100.00
2023-01-26T16:48:53.293Z,100.00
2023-01-26T16:54:55.241Z,100.00
2023-01-26T17:00:57.600Z,100.00
2023-01-26T17:06:59.518Z,100.00
2023-01-26T17:13:01.762Z,100.00
2023-01-26T17:19:03.735Z,100.00
2023-01-26T17:25:07.259Z,100.00
2023-01-26T17:31:17.564Z,100.00
2023-01-26T17:37:21.509Z,100.00
2023-01-26T17:43:23.846Z,100.00
2023-01-26T17:49:25.802Z,100.00
2023-01-26T17:55:27.700Z,100.00
2023-01-26T18:01:29.812Z,100.00
2023-01-26T18:07:31.730Z,99.90
2023-01-26T18:13:34.284Z,99.91
2023-01-26T18:19:36.170Z,99.92
2023-01-26T18:25:38.178Z,100.00
2023-01-26T18:31:40.926Z,100.00
2023-01-26T18:37:42.925Z,100.00
2023-01-26T18:43:46.904Z,100.00
2023-01-26T18:49:48.847Z,100.00
2023-01-26T18:55:55.172Z,100.00
2023-01-26T19:02:00.215Z,100.00
2023-01-26T19:08:10.202Z,100.00
2023-01-26T19:14:12.115Z,100.00
2023-01-26T19:20:14.118Z,100.00
2023-01-26T19:26:19.572Z,100.00
2023-01-26T19:32:21.464Z,100.00
2023-01-26T19:38:23.827Z,100.00
2023-01-26T19:44:25.849Z,100.00
2023-01-26T19:50:27.786Z,100.00
2023-01-26T19:56:33.019Z,100.00
2023-01-26T20:02:35.223Z,100.00
2023-01-26T20:08:37.147Z,100.00
2023-01-26T20:14:39.184Z,100.00
2023-01-26T20:20:41.105Z,100.00
2023-01-26T20:26:44.480Z,100.00
2023-01-26T20:32:46.653Z,100.00
2023-01-26T20:38:49.683Z,100.00
2023-01-26T20:44:51.705Z,100.00
2023-01-26T20:50:53.602Z,100.00
2023-01-26T20:56:55.501Z,100.00
2023-01-26T21:02:57.380Z,100.00
2023-01-26T21:09:00.982Z,100.00
2023-01-26T21:15:06.998Z,100.00
2023-01-26T21:21:12.791Z,100.00
2023-01-26T21:27:15.092Z,100.00
2023-01-26T21:33:16.991Z,100.00
2023-01-26T21:39:21.119Z,100.00
2023-01-26T21:45:42.643Z,100.00
2023-01-26T21:52:03.630Z,100.00
2023-01-26T21:58:23.972Z,100.00
2023-01-26T22:04:30.004Z,100.00
2023-01-26T22:10:32.032Z,100.00
2023-01-26T22:16:34.100Z,100.00
2023-01-26T22:22:36.006Z,100.00
2023-01-26T22:28:37.925Z,100.00
2023-01-26T22:34:40.315Z,100.00
2023-01-26T22:40:42.205Z,100.00
2023-01-26T22:46:44.149Z,100.00
2023-01-26T22:52:46.012Z,100.00
2023-01-26T22:58:59.492Z,100.00
2023-01-26T23:05:02.055Z,100.00
2023-01-26T23:11:13.958Z,100.00
2023-01-26T23:17:15.863Z,100.00
2023-01-26T23:23:19.197Z,100.00
2023-01-26T23:29:21.091Z,100.00
2023-01-26T23:35:25.524Z,100.00
2023-01-26T23:41:28.300Z,100.00
2023-01-26T23:47:30.803Z,100.00
2023-01-26T23:53:33.225Z,100.00
2023-01-26T23:59:35.149Z,100.00
